sensor_id;sensor_type;location;lat;lon;timestamp;temperature;humidity
22132;DHT22;11232;51.748;19.390;2022-12-16T00:01:16;-3.50;99.90
22132;DHT22;11232;51.748;19.390;2022-12-16T00:03:46;-3.50;99.90
22132;DHT22;11232;51.748;19.390;2022-12-16T00:06:13;-3.50;99.90
22132;DHT22;11232;51.748;19.390;2022-12-16T00:08:39;-3.50;99.90
22132;DHT22;11232;51.748;19.390;2022-12-16T00:11:05;-3.60;99.90
22132;DHT22;11232;51.748;19.390;2022-12-16T00:13:32;-3.50;99.90
22132;DHT22;11232;51.748;19.390;2022-12-16T00:15:59;-3.40;99.90
22132;DHT22;11232;51.748;19.390;2022-12-16T00:18:28;-3.50;99.90
22132;DHT22;11232;51.748;19.390;2022-12-16T00:20:54;-3.50;99.90
22132;DHT22;11232;51.748;19.390;2022-12-16T00:23:20;-3.50;99.90
22132;DHT22;11232;51.748;19.390;2022-12-16T00:25:46;-3.50;99.90
22132;DHT22;11232;51.748;19.390;2022-12-16T00:28:13;-3.40;99.90
22132;DHT22;11232;51.748;19.390;2022-12-16T00:30:41;-3.50;99.90
22132;DHT22;11232;51.748;19.390;2022-12-16T00:33:07;-3.60;99.90
22132;DHT22;11232;51.748;19.390;2022-12-16T00:35:33;-3.50;99.90
22132;DHT22;11232;51.748;19.390;2022-12-16T00:37:59;-3.40;99.90
22132;DHT22;11232;51.748;19.390;2022-12-16T00:40:24;-3.40;99.90
22132;DHT22;11232;51.748;19.390;2022-12-16T00:42:51;-3.40;99.90
22132;DHT22;11232;51.748;19.390;2022-12-16T00:45:17;-3.40;99.90
22132;DHT22;11232;51.748;19.390;2022-12-16T00:47:42;-3.40;99.90
22132;DHT22;11232;51.748;19.390;2022-12-16T00:50:08;-3.40;99.90
22132;DHT22;11232;51.748;19.390;2022-12-16T00:52:35;-3.40;99.90
22132;DHT22;11232;51.748;19.390;2022-12-16T00:55:01;-3.40;99.90
22132;DHT22;11232;51.748;19.390;2022-12-16T00:57:27;-3.40;99.90
22132;DHT22;11232;51.748;19.390;2022-12-16T00:59:52;-3.30;99.90
22132;DHT22;11232;51.748;19.390;2022-12-16T01:02:18;-3.30;99.90
22132;DHT22;11232;51.748;19.390;2022-12-16T01:04:43;-3.30;99.90
22132;DHT22;11232;51.748;19.390;2022-12-16T01:07:09;-3.40;99.90
22132;DHT22;11232;51.748;19.390;2022-12-16T01:09:35;-3.30;99.90
22132;DHT22;11232;51.748;19.390;2022-12-16T01:12:01;-3.30;99.90
22132;DHT22;11232;51.748;19.390;2022-12-16T01:14:26;-3.30;99.90
22132;DHT22;11232;51.748;19.390;2022-12-16T01:16:52;-3.20;99.90
22132;DHT22;11232;51.748;19.390;2022-12-16T01:19:17;-2.70;99.90
22132;DHT22;11232;51.748;19.390;2022-12-16T01:21:43;-3.30;99.90
22132;DHT22;11232;51.748;19.390;2022-12-16T01:24:09;-3.30;99.90
22132;DHT22;11232;51.748;19.390;2022-12-16T01:26:35;-3.30;99.90
22132;DHT22;11232;51.748;19.390;2022-12-16T01:29:01;-3.20;99.90
22132;DHT22;11232;51.748;19.390;2022-12-16T01:31:27;-3.20;99.90
22132;DHT22;11232;51.748;19.390;2022-12-16T01:33:53;-3.20;99.90
22132;DHT22;11232;51.748;19.390;2022-12-16T01:36:18;-3.20;99.90
22132;DHT22;11232;51.748;19.390;2022-12-16T01:38:45;-3.10;99.90
22132;DHT22;11232;51.748;19.390;2022-12-16T01:41:13;-3.10;99.90
22132;DHT22;11232;51.748;19.390;2022-12-16T01:43:41;-3.10;99.90
22132;DHT22;11232;51.748;19.390;2022-12-16T01:48:46;-3.10;99.90
22132;DHT22;11232;51.748;19.390;2022-12-16T01:51:21;-3.20;99.90
22132;DHT22;11232;51.748;19.390;2022-12-16T01:53:52;-3.10;99.90
22132;DHT22;11232;51.748;19.390;2022-12-16T01:56:20;-3.20;99.90
22132;DHT22;11232;51.748;19.390;2022-12-16T01:58:49;-3.20;99.90
22132;DHT22;11232;51.748;19.390;2022-12-16T02:01:15;-3.20;99.90
22132;DHT22;11232;51.748;19.390;2022-12-16T02:03:42;-3.30;99.90
22132;DHT22;11232;51.748;19.390;2022-12-16T02:06:08;-3.20;99.90
22132;DHT22;11232;51.748;19.390;2022-12-16T02:08:34;-3.20;99.90
22132;DHT22;11232;51.748;19.390;2022-12-16T02:11:20;-3.20;99.90
22132;DHT22;11232;51.748;19.390;2022-12-16T02:16:54;-3.10;99.90
22132;DHT22;11232;51.748;19.390;2022-12-16T02:25:29;-3.00;99.90
22132;DHT22;11232;51.748;19.390;2022-12-16T02:36:24;-3.00;99.90
22132;DHT22;11232;51.748;19.390;2022-12-16T02:39:03;-3.00;99.90
22132;DHT22;11232;51.748;19.390;2022-12-16T02:44:06;-3.00;99.90
22132;DHT22;11232;51.748;19.390;2022-12-16T02:46:41;-3.00;99.90
22132;DHT22;11232;51.748;19.390;2022-12-16T02:51:54;-3.00;99.90
22132;DHT22;11232;51.748;19.390;2022-12-16T02:54:20;-3.00;99.90
22132;DHT22;11232;51.748;19.390;2022-12-16T03:00:04;-3.00;99.90
22132;DHT22;11232;51.748;19.390;2022-12-16T03:07:53;-2.90;99.90
22132;DHT22;11232;51.748;19.390;2022-12-16T03:10:27;-3.20;99.90
22132;DHT22;11232;51.748;19.390;2022-12-16T03:12:55;-3.00;99.90
22132;DHT22;11232;51.748;19.390;2022-12-16T03:15:25;-3.00;99.90
22132;DHT22;11232;51.748;19.390;2022-12-16T03:17:53;-2.90;99.90
22132;DHT22;11232;51.748;19.390;2022-12-16T03:20:36;-3.10;99.90
22132;DHT22;11232;51.748;19.390;2022-12-16T03:23:09;-3.00;99.90
22132;DHT22;11232;51.748;19.390;2022-12-16T03:25:40;-3.00;99.90
22132;DHT22;11232;51.748;19.390;2022-12-16T03:30:44;-2.60;99.90
22132;DHT22;11232;51.748;19.390;2022-12-16T03:33:23;-3.30;99.90
22132;DHT22;11232;51.748;19.390;2022-12-16T03:35:58;-3.10;99.90
22132;DHT22;11232;51.748;19.390;2022-12-16T03:38:25;-3.30;99.90
22132;DHT22;11232;51.748;19.390;2022-12-16T03:40:52;-3.20;99.90
22132;DHT22;11232;51.748;19.390;2022-12-16T03:43:19;-3.40;99.90
22132;DHT22;11232;51.748;19.390;2022-12-16T03:45:46;-3.10;99.90
22132;DHT22;11232;51.748;19.390;2022-12-16T03:48:15;-3.20;99.90
22132;DHT22;11232;51.748;19.390;2022-12-16T03:50:43;-3.10;99.90
22132;DHT22;11232;51.748;19.390;2022-12-16T03:53:08;-3.20;99.90
22132;DHT22;11232;51.748;19.390;2022-12-16T03:55:34;-3.20;99.90
22132;DHT22;11232;51.748;19.390;2022-12-16T03:58:00;-3.20;99.90
22132;DHT22;11232;51.748;19.390;2022-12-16T04:00:25;-3.20;99.90
22132;DHT22;11232;51.748;19.390;2022-12-16T04:02:51;-3.20;99.90
22132;DHT22;11232;51.748;19.390;2022-12-16T04:05:17;-3.20;99.90
22132;DHT22;11232;51.748;19.390;2022-12-16T04:07:43;-3.20;99.90
22132;DHT22;11232;51.748;19.390;2022-12-16T04:10:09;-3.30;99.90
22132;DHT22;11232;51.748;19.390;2022-12-16T04:12:35;-3.30;99.90
22132;DHT22;11232;51.748;19.390;2022-12-16T04:15:19;-3.30;99.90
22132;DHT22;11232;51.748;19.390;2022-12-16T04:18:04;-3.30;99.90
22132;DHT22;11232;51.748;19.390;2022-12-16T04:20:52;-3.30;99.90
22132;DHT22;11232;51.748;19.390;2022-12-16T04:23:48;-3.30;99.90
22132;DHT22;11232;51.748;19.390;2022-12-16T04:26:33;-3.30;99.90
22132;DHT22;11232;51.748;19.390;2022-12-16T04:29:19;-3.30;99.90
22132;DHT22;11232;51.748;19.390;2022-12-16T04:31:44;-3.30;99.90
22132;DHT22;11232;51.748;19.390;2022-12-16T04:34:10;-3.30;99.90
22132;DHT22;11232;51.748;19.390;2022-12-16T04:36:53;-3.40;99.90
22132;DHT22;11232;51.748;19.390;2022-12-16T04:39:37;-3.30;99.90
22132;DHT22;11232;51.748;19.390;2022-12-16T04:42:22;-3.30;99.90
22132;DHT22;11232;51.748;19.390;2022-12-16T04:45:06;-3.30;99.90
22132;DHT22;11232;51.748;19.390;2022-12-16T04:47:52;-3.30;99.90
22132;DHT22;11232;51.748;19.390;2022-12-16T04:50:36;-3.30;99.90
22132;DHT22;11232;51.748;19.390;2022-12-16T04:53:21;-2.80;99.90
22132;DHT22;11232;51.748;19.390;2022-12-16T04:56:06;-3.30;99.90
22132;DHT22;11232;51.748;19.390;2022-12-16T04:58:50;-3.20;99.90
22132;DHT22;11232;51.748;19.390;2022-12-16T05:01:34;-3.20;99.90
22132;DHT22;11232;51.748;19.390;2022-12-16T05:04:26;-3.30;99.90
22132;DHT22;11232;51.748;19.390;2022-12-16T05:07:10;-3.20;99.90
22132;DHT22;11232;51.748;19.390;2022-12-16T05:09:54;-3.20;99.90
22132;DHT22;11232;51.748;19.390;2022-12-16T05:12:38;-3.20;99.90
22132;DHT22;11232;51.748;19.390;2022-12-16T05:15:22;-3.20;99.90
22132;DHT22;11232;51.748;19.390;2022-12-16T05:18:14;-3.20;99.90
22132;DHT22;11232;51.748;19.390;2022-12-16T05:21:00;-3.20;99.90
22132;DHT22;11232;51.748;19.390;2022-12-16T05:23:46;-3.20;99.90
22132;DHT22;11232;51.748;19.390;2022-12-16T05:26:30;-3.20;99.90
22132;DHT22;11232;51.748;19.390;2022-12-16T05:29:14;-3.20;99.90
22132;DHT22;11232;51.748;19.390;2022-12-16T05:31:58;-3.20;99.90
22132;DHT22;11232;51.748;19.390;2022-12-16T05:34:42;-3.20;99.90
22132;DHT22;11232;51.748;19.390;2022-12-16T05:37:26;-3.20;99.90
22132;DHT22;11232;51.748;19.390;2022-12-16T05:40:10;-3.10;99.90
22132;DHT22;11232;51.748;19.390;2022-12-16T05:42:54;-3.10;99.90
22132;DHT22;11232;51.748;19.390;2022-12-16T05:45:40;-3.20;99.90
22132;DHT22;11232;51.748;19.390;2022-12-16T05:48:25;-3.10;99.90
22132;DHT22;11232;51.748;19.390;2022-12-16T05:51:09;-3.10;99.90
22132;DHT22;11232;51.748;19.390;2022-12-16T05:53:54;-3.00;99.90
22132;DHT22;11232;51.748;19.390;2022-12-16T05:56:38;-3.10;99.90
22132;DHT22;11232;51.748;19.390;2022-12-16T05:59:22;-3.00;99.90
22132;DHT22;11232;51.748;19.390;2022-12-16T06:02:06;-3.10;99.90
22132;DHT22;11232;51.748;19.390;2022-12-16T06:04:50;-3.00;99.90
22132;DHT22;11232;51.748;19.390;2022-12-16T06:07:34;-3.00;99.90
22132;DHT22;11232;51.748;19.390;2022-12-16T06:10:18;-3.00;99.90
22132;DHT22;11232;51.748;19.390;2022-12-16T06:13:02;-2.90;99.90
22132;DHT22;11232;51.748;19.390;2022-12-16T06:15:46;-2.90;99.90
22132;DHT22;11232;51.748;19.390;2022-12-16T06:18:30;-2.90;99.90
22132;DHT22;11232;51.748;19.390;2022-12-16T06:21:14;-2.90;99.90
22132;DHT22;11232;51.748;19.390;2022-12-16T06:23:58;-2.90;99.90
22132;DHT22;11232;51.748;19.390;2022-12-16T06:26:42;-2.90;99.90
22132;DHT22;11232;51.748;19.390;2022-12-16T06:29:26;-2.80;99.90
22132;DHT22;11232;51.748;19.390;2022-12-16T06:32:10;-2.80;99.90
22132;DHT22;11232;51.748;19.390;2022-12-16T06:34:54;-2.80;99.90
22132;DHT22;11232;51.748;19.390;2022-12-16T06:37:38;-2.70;99.90
22132;DHT22;11232;51.748;19.390;2022-12-16T06:40:22;-2.70;99.90
22132;DHT22;11232;51.748;19.390;2022-12-16T06:43:06;-2.70;99.90
22132;DHT22;11232;51.748;19.390;2022-12-16T06:45:50;-2.70;99.90
22132;DHT22;11232;51.748;19.390;2022-12-16T06:48:34;-2.70;99.90
22132;DHT22;11232;51.748;19.390;2022-12-16T06:51:18;-2.70;99.90
22132;DHT22;11232;51.748;19.390;2022-12-16T06:54:02;-2.70;99.90
22132;DHT22;11232;51.748;19.390;2022-12-16T06:56:46;-2.70;99.90
22132;DHT22;11232;51.748;19.390;2022-12-16T06:59:30;-2.60;99.90
22132;DHT22;11232;51.748;19.390;2022-12-16T07:02:14;-2.70;99.90
22132;DHT22;11232;51.748;19.390;2022-12-16T07:04:58;-2.70;99.90
22132;DHT22;11232;51.748;19.390;2022-12-16T07:07:50;-2.60;99.90
22132;DHT22;11232;51.748;19.390;2022-12-16T07:10:34;-2.60;99.90
22132;DHT22;11232;51.748;19.390;2022-12-16T07:13:18;-2.70;99.90
22132;DHT22;11232;51.748;19.390;2022-12-16T07:16:02;-2.60;99.90
22132;DHT22;11232;51.748;19.390;2022-12-16T07:18:46;-2.70;99.90
22132;DHT22;11232;51.748;19.390;2022-12-16T07:21:30;-2.70;99.90
22132;DHT22;11232;51.748;19.390;2022-12-16T07:24:14;-2.70;99.90
22132;DHT22;11232;51.748;19.390;2022-12-16T07:27:09;-2.70;99.90
22132;DHT22;11232;51.748;19.390;2022-12-16T07:29:53;-2.70;99.90
22132;DHT22;11232;51.748;19.390;2022-12-16T07:32:37;-2.70;99.90
22132;DHT22;11232;51.748;19.390;2022-12-16T07:35:21;-2.80;99.90
22132;DHT22;11232;51.748;19.390;2022-12-16T07:38:05;-2.80;99.90
22132;DHT22;11232;51.748;19.390;2022-12-16T07:40:49;-2.70;99.90
22132;DHT22;11232;51.748;19.390;2022-12-16T07:43:33;-2.80;99.90
22132;DHT22;11232;51.748;19.390;2022-12-16T07:46:17;-2.80;99.90
22132;DHT22;11232;51.748;19.390;2022-12-16T07:49:01;-2.80;99.90
22132;DHT22;11232;51.748;19.390;2022-12-16T07:51:45;-2.80;99.90
22132;DHT22;11232;51.748;19.390;2022-12-16T07:54:31;-2.80;99.90
22132;DHT22;11232;51.748;19.390;2022-12-16T07:57:15;-2.80;99.90
22132;DHT22;11232;51.748;19.390;2022-12-16T08:00:04;-2.80;99.90
22132;DHT22;11232;51.748;19.390;2022-12-16T08:02:53;-2.70;99.90
22132;DHT22;11232;51.748;19.390;2022-12-16T08:05:37;-2.80;99.90
22132;DHT22;11232;51.748;19.390;2022-12-16T08:08:21;-2.80;99.90
22132;DHT22;11232;51.748;19.390;2022-12-16T08:11:07;-2.70;99.90
22132;DHT22;11232;51.748;19.390;2022-12-16T08:13:51;-0.90;99.90
22132;DHT22;11232;51.748;19.390;2022-12-16T08:16:35;-2.70;99.90
22132;DHT22;11232;51.748;19.390;2022-12-16T08:19:19;-1.90;99.90
22132;DHT22;11232;51.748;19.390;2022-12-16T08:22:03;-1.20;99.90
22132;DHT22;11232;51.748;19.390;2022-12-16T08:24:47;-2.70;99.90
22132;DHT22;11232;51.748;19.390;2022-12-16T08:27:31;-2.50;99.90
22132;DHT22;11232;51.748;19.390;2022-12-16T08:30:16;-2.50;99.90
22132;DHT22;11232;51.748;19.390;2022-12-16T08:33:00;-0.70;99.90
22132;DHT22;11232;51.748;19.390;2022-12-16T08:35:44;-2.50;99.90
22132;DHT22;11232;51.748;19.390;2022-12-16T08:38:28;-2.70;99.90
22132;DHT22;11232;51.748;19.390;2022-12-16T08:41:12;-0.70;99.90
22132;DHT22;11232;51.748;19.390;2022-12-16T08:43:56;-2.60;99.90
22132;DHT22;11232;51.748;19.390;2022-12-16T08:46:40;-2.50;99.90
22132;DHT22;11232;51.748;19.390;2022-12-16T08:49:24;-2.60;99.90
22132;DHT22;11232;51.748;19.390;2022-12-16T08:52:08;-2.60;99.90
22132;DHT22;11232;51.748;19.390;2022-12-16T08:54:52;-2.70;99.90
22132;DHT22;11232;51.748;19.390;2022-12-16T08:57:36;-2.60;99.90
22132;DHT22;11232;51.748;19.390;2022-12-16T09:00:20;-2.70;99.90
22132;DHT22;11232;51.748;19.390;2022-12-16T09:03:05;-2.90;99.90
22132;DHT22;11232;51.748;19.390;2022-12-16T09:05:49;-2.70;99.90
22132;DHT22;11232;51.748;19.390;2022-12-16T09:08:33;-2.80;99.90
22132;DHT22;11232;51.748;19.390;2022-12-16T09:11:17;-2.90;99.90
22132;DHT22;11232;51.748;19.390;2022-12-16T09:14:01;-2.80;99.90
22132;DHT22;11232;51.748;19.390;2022-12-16T09:16:45;-2.60;99.90
22132;DHT22;11232;51.748;19.390;2022-12-16T09:19:29;-1.00;99.90
22132;DHT22;11232;51.748;19.390;2022-12-16T09:22:13;-2.60;99.90
22132;DHT22;11232;51.748;19.390;2022-12-16T09:24:57;-2.70;99.90
22132;DHT22;11232;51.748;19.390;2022-12-16T09:27:41;-2.60;99.90
22132;DHT22;11232;51.748;19.390;2022-12-16T09:30:25;-2.50;99.90
22132;DHT22;11232;51.748;19.390;2022-12-16T09:33:09;-2.70;99.90
22132;DHT22;11232;51.748;19.390;2022-12-16T09:35:53;-2.50;99.90
22132;DHT22;11232;51.748;19.390;2022-12-16T09:38:37;-1.70;99.90
22132;DHT22;11232;51.748;19.390;2022-12-16T09:44:34;-1.70;99.90
22132;DHT22;11232;51.748;19.390;2022-12-16T09:50:56;-2.20;99.90
22132;DHT22;11232;51.748;19.390;2022-12-16T09:53:42;-2.40;99.90
22132;DHT22;11232;51.748;19.390;2022-12-16T09:56:32;-0.50;99.90
22132;DHT22;11232;51.748;19.390;2022-12-16T09:59:27;-1.10;99.90
22132;DHT22;11232;51.748;19.390;2022-12-16T10:02:14;-2.10;99.90
22132;DHT22;11232;51.748;19.390;2022-12-16T10:05:00;-2.00;99.90
22132;DHT22;11232;51.748;19.390;2022-12-16T10:08:00;-3.10;99.90
22132;DHT22;11232;51.748;19.390;2022-12-16T10:14:03;-0.10;99.90
22132;DHT22;11232;51.748;19.390;2022-12-16T10:23:10;-1.90;99.90
22132;DHT22;11232;51.748;19.390;2022-12-16T10:26:09;-2.20;99.90
22132;DHT22;11232;51.748;19.390;2022-12-16T10:29:06;-1.90;99.90
22132;DHT22;11232;51.748;19.390;2022-12-16T10:31:56;-2.00;99.90
22132;DHT22;11232;51.748;19.390;2022-12-16T10:34:40;-0.60;99.90
22132;DHT22;11232;51.748;19.390;2022-12-16T10:37:36;-0.10;99.90
22132;DHT22;11232;51.748;19.390;2022-12-16T10:40:28;-1.90;99.90
22132;DHT22;11232;51.748;19.390;2022-12-16T10:43:37;0.30;99.90
22132;DHT22;11232;51.748;19.390;2022-12-16T10:46:25;-1.80;99.90
22132;DHT22;11232;51.748;19.390;2022-12-16T10:49:13;-1.80;99.90
22132;DHT22;11232;51.748;19.390;2022-12-16T10:51:58;-1.70;99.90
22132;DHT22;11232;51.748;19.390;2022-12-16T10:54:47;-0.90;99.90
22132;DHT22;11232;51.748;19.390;2022-12-16T11:00:48;-1.60;99.90
22132;DHT22;11232;51.748;19.390;2022-12-16T11:03:34;-1.50;99.90
22132;DHT22;11232;51.748;19.390;2022-12-16T11:06:38;-2.30;99.90
22132;DHT22;11232;51.748;19.390;2022-12-16T11:09:33;-1.40;99.90
22132;DHT22;11232;51.748;19.390;2022-12-16T11:12:22;-1.40;99.90
22132;DHT22;11232;51.748;19.390;2022-12-16T11:15:28;-1.30;99.90
22132;DHT22;11232;51.748;19.390;2022-12-16T11:18:15;-1.20;99.90
22132;DHT22;11232;51.748;19.390;2022-12-16T11:21:20;-1.10;99.90
22132;DHT22;11232;51.748;19.390;2022-12-16T11:24:16;-1.10;99.90
22132;DHT22;11232;51.748;19.390;2022-12-16T11:27:09;-1.20;99.90
22132;DHT22;11232;51.748;19.390;2022-12-16T11:29:58;-1.10;99.90
22132;DHT22;11232;51.748;19.390;2022-12-16T11:32:54;0.60;99.90
22132;DHT22;11232;51.748;19.390;2022-12-16T11:35:42;0.30;99.90
22132;DHT22;11232;51.748;19.390;2022-12-16T11:38:44;-1.20;99.90
22132;DHT22;11232;51.748;19.390;2022-12-16T11:41:36;-1.20;99.90
22132;DHT22;11232;51.748;19.390;2022-12-16T11:44:26;-1.20;99.90
22132;DHT22;11232;51.748;19.390;2022-12-16T11:50:20;-1.10;99.90
22132;DHT22;11232;51.748;19.390;2022-12-16T11:56:14;-1.30;99.90
22132;DHT22;11232;51.748;19.390;2022-12-16T11:59:02;-0.90;99.90
22132;DHT22;11232;51.748;19.390;2022-12-16T12:01:52;-1.00;99.90
22132;DHT22;11232;51.748;19.390;2022-12-16T12:04:38;-1.20;99.90
22132;DHT22;11232;51.748;19.390;2022-12-16T12:07:28;-1.20;99.90
22132;DHT22;11232;51.748;19.390;2022-12-16T12:13:45;-1.20;99.90
22132;DHT22;11232;51.748;19.390;2022-12-16T12:22:35;-1.30;99.90
22132;DHT22;11232;51.748;19.390;2022-12-16T12:31:39;-1.70;99.90
22132;DHT22;11232;51.748;19.390;2022-12-16T12:34:37;-1.70;99.90
22132;DHT22;11232;51.748;19.390;2022-12-16T12:37:29;-1.80;99.90
22132;DHT22;11232;51.748;19.390;2022-12-16T12:43:57;-1.60;99.90
22132;DHT22;11232;51.748;19.390;2022-12-16T12:46:50;-1.90;99.90
22132;DHT22;11232;51.748;19.390;2022-12-16T12:50:38;-2.20;99.90
22132;DHT22;11232;51.748;19.390;2022-12-16T12:58:50;-2.10;99.90
22132;DHT22;11232;51.748;19.390;2022-12-16T13:02:19;-2.20;99.90
22132;DHT22;11232;51.748;19.390;2022-12-16T13:05:04;-2.30;99.90
22132;DHT22;11232;51.748;19.390;2022-12-16T13:07:49;-2.00;99.90
22132;DHT22;11232;51.748;19.390;2022-12-16T13:10:37;-2.10;99.90
22132;DHT22;11232;51.748;19.390;2022-12-16T13:13:32;-2.10;99.90
22132;DHT22;11232;51.748;19.390;2022-12-16T13:22:35;-2.10;99.90
22132;DHT22;11232;51.748;19.390;2022-12-16T13:28:31;-2.20;99.90
22132;DHT22;11232;51.748;19.390;2022-12-16T13:31:16;-2.50;99.90
22132;DHT22;11232;51.748;19.390;2022-12-16T13:34:26;-2.30;99.90
22132;DHT22;11232;51.748;19.390;2022-12-16T13:37:23;-2.30;99.90
22132;DHT22;11232;51.748;19.390;2022-12-16T13:40:22;-2.30;99.90
22132;DHT22;11232;51.748;19.390;2022-12-16T13:56:45;-2.60;99.90
22132;DHT22;11232;51.748;19.390;2022-12-16T13:59:32;-2.60;99.90
22132;DHT22;11232;51.748;19.390;2022-12-16T14:02:26;-2.80;99.90
22132;DHT22;11232;51.748;19.390;2022-12-16T14:05:22;-2.60;99.90
22132;DHT22;11232;51.748;19.390;2022-12-16T14:08:16;-2.60;99.90
22132;DHT22;11232;51.748;19.390;2022-12-16T14:11:03;-2.60;99.90
22132;DHT22;11232;51.748;19.390;2022-12-16T14:14:05;-2.60;99.90
22132;DHT22;11232;51.748;19.390;2022-12-16T14:17:03;-2.60;99.90
22132;DHT22;11232;51.748;19.390;2022-12-16T14:26:04;-2.70;99.90
22132;DHT22;11232;51.748;19.390;2022-12-16T14:28:48;-2.80;99.90
22132;DHT22;11232;51.748;19.390;2022-12-16T14:31:38;-2.70;99.90
22132;DHT22;11232;51.748;19.390;2022-12-16T14:34:25;-2.80;99.90
22132;DHT22;11232;51.748;19.390;2022-12-16T14:39:57;-2.80;99.90
22132;DHT22;11232;51.748;19.390;2022-12-16T14:42:42;-2.80;99.90
22132;DHT22;11232;51.748;19.390;2022-12-16T14:51:15;-2.90;99.90
22132;DHT22;11232;51.748;19.390;2022-12-16T14:54:30;-2.90;99.90
22132;DHT22;11232;51.748;19.390;2022-12-16T15:02:54;-2.90;99.90
22132;DHT22;11232;51.748;19.390;2022-12-16T15:05:39;-3.00;99.90
22132;DHT22;11232;51.748;19.390;2022-12-16T15:08:25;-1.40;99.90
22132;DHT22;11232;51.748;19.390;2022-12-16T15:11:12;-3.10;99.90
22132;DHT22;11232;51.748;19.390;2022-12-16T15:14:01;-3.20;99.90
22132;DHT22;11232;51.748;19.390;2022-12-16T15:16:46;-2.80;99.90
22132;DHT22;11232;51.748;19.390;2022-12-16T15:19:46;-3.20;99.90
22132;DHT22;11232;51.748;19.390;2022-12-16T15:22:32;-3.20;99.90
22132;DHT22;11232;51.748;19.390;2022-12-16T15:25:23;-3.30;99.90
22132;DHT22;11232;51.748;19.390;2022-12-16T15:31:20;-2.30;99.90
22132;DHT22;11232;51.748;19.390;2022-12-16T15:34:30;-3.10;99.90
22132;DHT22;11232;51.748;19.390;2022-12-16T15:37:40;-3.00;99.90
22132;DHT22;11232;51.748;19.390;2022-12-16T15:40:29;-2.90;99.90
22132;DHT22;11232;51.748;19.390;2022-12-16T15:43:29;-3.20;99.90
22132;DHT22;11232;51.748;19.390;2022-12-16T15:46:32;-2.90;99.90
22132;DHT22;11232;51.748;19.390;2022-12-16T15:49:37;-3.00;99.90
22132;DHT22;11232;51.748;19.390;2022-12-16T15:52:32;-3.10;99.90
22132;DHT22;11232;51.748;19.390;2022-12-16T15:55:28;-2.90;99.90
22132;DHT22;11232;51.748;19.390;2022-12-16T15:58:36;-2.90;99.90
22132;DHT22;11232;51.748;19.390;2022-12-16T16:01:22;-2.90;99.90
22132;DHT22;11232;51.748;19.390;2022-12-16T16:04:27;-3.00;99.90
22132;DHT22;11232;51.748;19.390;2022-12-16T16:07:17;-2.90;99.90
22132;DHT22;11232;51.748;19.390;2022-12-16T16:10:17;-3.00;99.90
22132;DHT22;11232;51.748;19.390;2022-12-16T16:13:02;-2.90;99.90
22132;DHT22;11232;51.748;19.390;2022-12-16T16:15:47;-1.80;99.90
22132;DHT22;11232;51.748;19.390;2022-12-16T16:18:31;-3.30;99.90
22132;DHT22;11232;51.748;19.390;2022-12-16T16:21:15;-3.00;99.90
22132;DHT22;11232;51.748;19.390;2022-12-16T16:23:59;-3.00;99.90
22132;DHT22;11232;51.748;19.390;2022-12-16T16:26:43;-3.30;99.90
22132;DHT22;11232;51.748;19.390;2022-12-16T16:29:27;-2.90;99.90
22132;DHT22;11232;51.748;19.390;2022-12-16T16:32:11;-3.20;99.90
22132;DHT22;11232;51.748;19.390;2022-12-16T16:34:55;-3.00;99.90
22132;DHT22;11232;51.748;19.390;2022-12-16T16:37:39;-3.20;99.90
22132;DHT22;11232;51.748;19.390;2022-12-16T16:40:39;-3.10;99.90
22132;DHT22;11232;51.748;19.390;2022-12-16T16:43:24;-2.90;99.90
22132;DHT22;11232;51.748;19.390;2022-12-16T16:46:32;-3.20;99.90
22132;DHT22;11232;51.748;19.390;2022-12-16T16:49:44;-2.90;99.90
22132;DHT22;11232;51.748;19.390;2022-12-16T16:52:29;-2.80;99.90
22132;DHT22;11232;51.748;19.390;2022-12-16T16:55:23;-3.10;99.90
22132;DHT22;11232;51.748;19.390;2022-12-16T16:58:25;-3.00;99.90
22132;DHT22;11232;51.748;19.390;2022-12-16T17:01:15;-2.80;99.90
22132;DHT22;11232;51.748;19.390;2022-12-16T17:04:00;-1.20;99.90
22132;DHT22;11232;51.748;19.390;2022-12-16T17:06:44;-2.90;99.90
22132;DHT22;11232;51.748;19.390;2022-12-16T17:09:28;-2.90;99.90
22132;DHT22;11232;51.748;19.390;2022-12-16T17:12:27;-3.00;99.90
22132;DHT22;11232;51.748;19.390;2022-12-16T17:15:22;-3.10;99.90
22132;DHT22;11232;51.748;19.390;2022-12-16T17:18:07;-2.80;99.90
22132;DHT22;11232;51.748;19.390;2022-12-16T17:20:52;-2.90;99.90
22132;DHT22;11232;51.748;19.390;2022-12-16T17:23:36;-3.10;99.90
22132;DHT22;11232;51.748;19.390;2022-12-16T17:26:21;-2.80;99.90
22132;DHT22;11232;51.748;19.390;2022-12-16T17:29:07;-2.90;99.90
22132;DHT22;11232;51.748;19.390;2022-12-16T17:31:57;-3.00;99.90
22132;DHT22;11232;51.748;19.390;2022-12-16T17:34:44;-0.80;99.90
22132;DHT22;11232;51.748;19.390;2022-12-16T17:37:28;-3.10;99.90
22132;DHT22;11232;51.748;19.390;2022-12-16T17:40:12;-2.90;99.90
22132;DHT22;11232;51.748;19.390;2022-12-16T17:42:56;-2.40;99.90
22132;DHT22;11232;51.748;19.390;2022-12-16T17:45:41;-3.20;99.90
22132;DHT22;11232;51.748;19.390;2022-12-16T17:48:25;-3.00;99.90
22132;DHT22;11232;51.748;19.390;2022-12-16T17:51:09;-2.90;99.90
22132;DHT22;11232;51.748;19.390;2022-12-16T17:53:53;-1.40;99.90
22132;DHT22;11232;51.748;19.390;2022-12-16T17:56:37;-2.90;99.90
22132;DHT22;11232;51.748;19.390;2022-12-16T17:59:21;-3.20;99.90
22132;DHT22;11232;51.748;19.390;2022-12-16T18:02:05;-3.20;99.90
22132;DHT22;11232;51.748;19.390;2022-12-16T18:04:51;-3.10;99.90
22132;DHT22;11232;51.748;19.390;2022-12-16T18:07:35;-3.10;99.90
22132;DHT22;11232;51.748;19.390;2022-12-16T18:10:19;-2.90;99.90
22132;DHT22;11232;51.748;19.390;2022-12-16T18:13:03;-0.90;99.90
22132;DHT22;11232;51.748;19.390;2022-12-16T18:15:51;-3.00;99.90
22132;DHT22;11232;51.748;19.390;2022-12-16T18:18:35;-3.20;99.90
22132;DHT22;11232;51.748;19.390;2022-12-16T18:21:19;-3.10;99.90
22132;DHT22;11232;51.748;19.390;2022-12-16T18:24:07;-3.10;99.90
22132;DHT22;11232;51.748;19.390;2022-12-16T18:26:52;-2.80;99.90
22132;DHT22;11232;51.748;19.390;2022-12-16T18:29:36;-2.90;99.90
22132;DHT22;11232;51.748;19.390;2022-12-16T18:32:30;-3.10;99.90
22132;DHT22;11232;51.748;19.390;2022-12-16T18:35:15;-2.90;99.90
22132;DHT22;11232;51.748;19.390;2022-12-16T18:37:59;-2.80;99.90
22132;DHT22;11232;51.748;19.390;2022-12-16T18:40:43;-2.80;99.90
22132;DHT22;11232;51.748;19.390;2022-12-16T18:43:27;-2.70;99.90
22132;DHT22;11232;51.748;19.390;2022-12-16T18:46:11;-0.60;99.90
22132;DHT22;11232;51.748;19.390;2022-12-16T18:48:55;-2.80;99.90
22132;DHT22;11232;51.748;19.390;2022-12-16T18:51:39;-2.70;99.90
22132;DHT22;11232;51.748;19.390;2022-12-16T18:54:23;-2.70;99.90
22132;DHT22;11232;51.748;19.390;2022-12-16T18:57:07;-2.80;99.90
22132;DHT22;11232;51.748;19.390;2022-12-16T18:59:51;-2.60;99.90
22132;DHT22;11232;51.748;19.390;2022-12-16T19:02:35;-2.90;99.90
22132;DHT22;11232;51.748;19.390;2022-12-16T19:05:19;-2.90;99.90
22132;DHT22;11232;51.748;19.390;2022-12-16T19:08:04;-2.70;99.90